Terminal Aerodrome Forecast
Issued by NWS Bismarck, ND

Home | Current Version | Previous Version | Text Only | Print | Product List | Glossary On
Versions: 1 2 3 4 5 6 7 8 9 10 11 12 13 14 15 16 17 18 19 20
392
FTUS43 KBIS 301739
TAFISN
TAF
KISN 301739Z 3018/3118 26008KT P6SM -SHRA VCTS BKN070CB
     FM310000 33009KT P6SM SHRA VCSH SCT030 OVC060
     FM311200 29011KT P6SM -SHRA SCT008 OVC010
     FM311700 33015G25KT P6SM -SHRA OVC010=

USA.gov is the U.S. government's official web portal to all federal, state and local government web resources and services.